sensor_id;sensor_type;location;lat;lon;timestamp;pressure;altitude;pressure_sealevel;temperature;humidity
80393;BME280;69719;45.544;10.218;2024-02-21T00:01:22;100935.28;;;10.61;100.00
80393;BME280;69719;45.544;10.218;2024-02-21T00:03:47;100934.63;;;10.32;100.00
80393;BME280;69719;45.544;10.218;2024-02-21T00:06:13;100938.25;;;10.37;100.00
80393;BME280;69719;45.544;10.218;2024-02-21T00:08:38;100937.97;;;10.26;100.00
80393;BME280;69719;45.544;10.218;2024-02-21T00:11:04;100933.69;;;10.39;100.00
80393;BME280;69719;45.544;10.218;2024-02-21T00:13:29;100933.75;;;10.46;100.00
80393;BME280;69719;45.544;10.218;2024-02-21T00:15:55;100932.22;;;10.30;100.00
80393;BME280;69719;45.544;10.218;2024-02-21T00:18:20;100927.09;;;10.37;100.00
80393;BME280;69719;45.544;10.218;2024-02-21T00:20:46;100927.44;;;10.34;100.00
80393;BME280;69719;45.544;10.218;2024-02-21T00:23:11;100929.16;;;10.27;100.00
80393;BME280;69719;45.544;10.218;2024-02-21T00:25:37;100938.13;;;10.18;100.00
80393;BME280;69719;45.544;10.218;2024-02-21T00:28:03;100930.88;;;10.13;100.00
80393;BME280;69719;45.544;10.218;2024-02-21T00:30:28;100929.25;;;10.12;100.00
80393;BME280;69719;45.544;10.218;2024-02-21T00:32:54;100931.84;;;9.76;100.00
80393;BME280;69719;45.544;10.218;2024-02-21T00:35:19;100927.00;;;9.88;100.00
80393;BME280;69719;45.544;10.218;2024-02-21T00:37:44;100919.66;;;10.13;100.00
80393;BME280;69719;45.544;10.218;2024-02-21T00:40:10;100924.50;;;10.16;100.00
80393;BME280;69719;45.544;10.218;2024-02-21T00:42:36;100924.50;;;10.16;100.00
80393;BME280;69719;45.544;10.218;2024-02-21T00:45:02;100921.34;;;9.84;100.00
80393;BME280;69719;45.544;10.218;2024-02-21T00:47:27;100928.69;;;9.81;100.00
80393;BME280;69719;45.544;10.218;2024-02-21T00:49:52;100921.84;;;9.59;100.00
80393;BME280;69719;45.544;10.218;2024-02-21T00:52:18;100921.66;;;9.60;100.00
80393;BME280;69719;45.544;10.218;2024-02-21T00:54:43;100924.00;;;9.55;100.00
80393;BME280;69719;45.544;10.218;2024-02-21T00:57:09;100922.59;;;9.38;100.00
80393;BME280;69719;45.544;10.218;2024-02-21T00:59:34;100917.31;;;9.46;100.00
80393;BME280;69719;45.544;10.218;2024-02-21T01:02:00;100921.03;;;9.58;100.00
80393;BME280;69719;45.544;10.218;2024-02-21T01:04:25;100916.72;;;9.65;100.00
80393;BME280;69719;45.544;10.218;2024-02-21T01:06:51;100921.03;;;9.58;100.00
80393;BME280;69719;45.544;10.218;2024-02-21T01:09:16;100913.34;;;9.50;100.00
80393;BME280;69719;45.544;10.218;2024-02-21T01:11:42;100916.69;;;9.44;100.00
80393;BME280;69719;45.544;10.218;2024-02-21T01:14:07;100906.72;;;9.62;100.00
80393;BME280;69719;45.544;10.218;2024-02-21T01:16:33;100911.97;;;9.69;100.00
80393;BME280;69719;45.544;10.218;2024-02-21T01:18:58;100913.38;;;9.71;100.00
80393;BME280;69719;45.544;10.218;2024-02-21T01:21:23;100910.88;;;9.78;100.00
80393;BME280;69719;45.544;10.218;2024-02-21T01:23:49;100908.81;;;9.73;100.00
80393;BME280;69719;45.544;10.218;2024-02-21T01:26:14;100903.94;;;9.64;100.00
80393;BME280;69719;45.544;10.218;2024-02-21T01:28:41;100898.81;;;9.70;100.00
80393;BME280;69719;45.544;10.218;2024-02-21T01:31:07;100896.63;;;9.74;100.00
80393;BME280;69719;45.544;10.218;2024-02-21T01:33:32;100897.66;;;9.58;100.00
80393;BME280;69719;45.544;10.218;2024-02-21T01:36:03;100894.34;;;9.64;100.00
80393;BME280;69719;45.544;10.218;2024-02-21T01:38:29;100887.28;;;9.44;100.00
80393;BME280;69719;45.544;10.218;2024-02-21T01:40:55;100900.75;;;9.18;100.00
80393;BME280;69719;45.544;10.218;2024-02-21T01:43:21;100898.00;;;9.19;100.00
80393;BME280;69719;45.544;10.218;2024-02-21T01:45:49;100898.25;;;9.10;100.00
80393;BME280;69719;45.544;10.218;2024-02-21T01:48:17;100892.97;;;9.03;100.00
80393;BME280;69719;45.544;10.218;2024-02-21T01:50:46;100894.13;;;9.01;100.00
80393;BME280;69719;45.544;10.218;2024-02-21T01:53:23;100897.56;;;9.01;100.00
80393;BME280;69719;45.544;10.218;2024-02-21T01:55:50;100890.47;;;9.10;100.00
80393;BME280;69719;45.544;10.218;2024-02-21T01:58:16;100892.94;;;9.32;100.00
80393;BME280;69719;45.544;10.218;2024-02-21T02:00:44;100893.56;;;9.49;100.00
80393;BME280;69719;45.544;10.218;2024-02-21T02:03:10;100899.94;;;9.47;100.00
80393;BME280;69719;45.544;10.218;2024-02-21T02:05:46;100898.97;;;9.33;100.00
80393;BME280;69719;45.544;10.218;2024-02-21T02:08:21;100894.03;;;9.38;100.00
80393;BME280;69719;45.544;10.218;2024-02-21T02:10:48;100896.97;;;9.35;100.00
80393;BME280;69719;45.544;10.218;2024-02-21T02:13:14;100895.53;;;9.32;100.00
80393;BME280;69719;45.544;10.218;2024-02-21T02:15:41;100884.88;;;9.42;100.00
80393;BME280;69719;45.544;10.218;2024-02-21T02:18:06;100885.50;;;9.44;100.00
80393;BME280;69719;45.544;10.218;2024-02-21T02:20:32;100889.91;;;9.29;100.00
80393;BME280;69719;45.544;10.218;2024-02-21T02:23:10;100885.63;;;9.07;100.00
80393;BME280;69719;45.544;10.218;2024-02-21T02:25:36;100880.09;;;9.10;100.00
80393;BME280;69719;45.544;10.218;2024-02-21T02:28:08;100872.78;;;9.34;100.00
80393;BME280;69719;45.544;10.218;2024-02-21T02:30:37;100881.00;;;9.17;100.00
80393;BME280;69719;45.544;10.218;2024-02-21T02:33:03;100885.38;;;9.02;100.00
80393;BME280;69719;45.544;10.218;2024-02-21T02:35:29;100883.75;;;9.15;100.00
80393;BME280;69719;45.544;10.218;2024-02-21T02:37:54;100887.97;;;9.16;100.00
80393;BME280;69719;45.544;10.218;2024-02-21T02:40:20;100888.84;;;8.94;100.00
80393;BME280;69719;45.544;10.218;2024-02-21T02:42:45;100883.75;;;8.86;100.00
80393;BME280;69719;45.544;10.218;2024-02-21T02:45:13;100881.44;;;8.91;100.00
80393;BME280;69719;45.544;10.218;2024-02-21T02:47:40;100880.09;;;9.10;100.00
80393;BME280;69719;45.544;10.218;2024-02-21T02:50:06;100883.94;;;8.99;100.00
80393;BME280;69719;45.544;10.218;2024-02-21T02:52:32;100882.31;;;8.98;100.00
80393;BME280;69719;45.544;10.218;2024-02-21T02:54:57;100878.13;;;9.12;100.00
80393;BME280;69719;45.544;10.218;2024-02-21T02:57:23;100887.41;;;8.92;100.00
80393;BME280;69719;45.544;10.218;2024-02-21T02:59:49;100881.69;;;8.82;100.00
80393;BME280;69719;45.544;10.218;2024-02-21T03:02:14;100885.19;;;8.89;100.00
80393;BME280;69719;45.544;10.218;2024-02-21T03:04:40;100890.09;;;8.84;100.00
80393;BME280;69719;45.544;10.218;2024-02-21T03:07:06;100881.06;;;8.94;100.00
80393;BME280;69719;45.544;10.218;2024-02-21T03:09:31;100884.03;;;9.06;100.00
80393;BME280;69719;45.544;10.218;2024-02-21T03:11:57;100891.09;;;8.97;100.00
80393;BME280;69719;45.544;10.218;2024-02-21T03:14:28;100889.84;;;8.93;100.00
80393;BME280;69719;45.544;10.218;2024-02-21T03:16:54;100889.03;;;8.93;100.00
80393;BME280;69719;45.544;10.218;2024-02-21T03:19:19;100890.38;;;9.18;100.00
80393;BME280;69719;45.544;10.218;2024-02-21T03:21:44;100891.91;;;8.98;100.00
80393;BME280;69719;45.544;10.218;2024-02-21T03:24:10;100888.22;;;8.92;100.00
80393;BME280;69719;45.544;10.218;2024-02-21T03:26:35;100882.16;;;9.00;100.00
80393;BME280;69719;45.544;10.218;2024-02-21T03:29:01;100888.25;;;9.21;100.00
80393;BME280;69719;45.544;10.218;2024-02-21T03:31:26;100882.78;;;9.16;100.00
80393;BME280;69719;45.544;10.218;2024-02-21T03:33:52;100886.34;;;8.86;100.00
80393;BME280;69719;45.544;10.218;2024-02-21T03:36:18;100892.91;;;8.82;100.00
80393;BME280;69719;45.544;10.218;2024-02-21T03:38:43;100892.25;;;8.66;100.00
80393;BME280;69719;45.544;10.218;2024-02-21T03:41:09;100898.69;;;8.70;100.00
80393;BME280;69719;45.544;10.218;2024-02-21T03:43:34;100893.13;;;8.73;100.00
80393;BME280;69719;45.544;10.218;2024-02-21T03:46:00;100896.44;;;8.67;100.00
80393;BME280;69719;45.544;10.218;2024-02-21T03:48:26;100902.00;;;8.64;100.00
80393;BME280;69719;45.544;10.218;2024-02-21T03:50:52;100896.81;;;8.78;100.00
80393;BME280;69719;45.544;10.218;2024-02-21T03:53:17;100903.19;;;8.90;100.00
80393;BME280;69719;45.544;10.218;2024-02-21T03:55:43;100901.41;;;9.05;100.00
80393;BME280;69719;45.544;10.218;2024-02-21T03:58:08;100896.00;;;8.78;100.00
80393;BME280;69719;45.544;10.218;2024-02-21T04:00:33;100893.94;;;8.73;100.00
80393;BME280;69719;45.544;10.218;2024-02-21T04:02:59;100905.28;;;8.57;100.00
80393;BME280;69719;45.544;10.218;2024-02-21T04:05:24;100893.66;;;8.53;100.00
80393;BME280;69719;45.544;10.218;2024-02-21T04:07:50;100900.06;;;8.80;100.00
80393;BME280;69719;45.544;10.218;2024-02-21T04:10:17;100899.97;;;9.03;100.00
80393;BME280;69719;45.544;10.218;2024-02-21T04:12:42;100896.22;;;8.91;100.00
80393;BME280;69719;45.544;10.218;2024-02-21T04:15:08;100894.41;;;8.77;100.00
80393;BME280;69719;45.544;10.218;2024-02-21T04:17:34;100900.06;;;8.80;100.00
80393;BME280;69719;45.544;10.218;2024-02-21T04:20:04;100899.69;;;8.83;100.00
80393;BME280;69719;45.544;10.218;2024-02-21T04:22:36;100902.75;;;8.87;100.00
80393;BME280;69719;45.544;10.218;2024-02-21T04:25:01;100910.25;;;8.82;100.00
80393;BME280;69719;45.544;10.218;2024-02-21T04:27:27;100911.38;;;8.65;100.00
80393;BME280;69719;45.544;10.218;2024-02-21T04:29:53;100916.59;;;8.27;100.00
80393;BME280;69719;45.544;10.218;2024-02-21T04:32:18;100921.19;;;8.40;100.00
80393;BME280;69719;45.544;10.218;2024-02-21T04:34:44;100917.44;;;8.42;100.00
80393;BME280;69719;45.544;10.218;2024-02-21T04:37:09;100925.78;;;8.52;100.00
80393;BME280;69719;45.544;10.218;2024-02-21T04:39:35;100921.34;;;8.38;100.00
80393;BME280;69719;45.544;10.218;2024-02-21T04:42:01;100925.38;;;8.41;100.00
80393;BME280;69719;45.544;10.218;2024-02-21T04:44:26;100932.34;;;8.40;100.00
80393;BME280;69719;45.544;10.218;2024-02-21T04:46:52;100928.44;;;8.44;100.00
80393;BME280;69719;45.544;10.218;2024-02-21T04:49:17;100919.19;;;8.27;100.00
80393;BME280;69719;45.544;10.218;2024-02-21T04:51:43;100923.03;;;8.23;100.00
80393;BME280;69719;45.544;10.218;2024-02-21T04:54:08;100923.66;;;8.33;100.00
80393;BME280;69719;45.544;10.218;2024-02-21T04:56:34;100912.81;;;8.52;100.00
80393;BME280;69719;45.544;10.218;2024-02-21T04:59:00;100914.97;;;8.64;100.00
80393;BME280;69719;45.544;10.218;2024-02-21T05:01:25;100912.63;;;8.69;100.00
80393;BME280;69719;45.544;10.218;2024-02-21T05:03:51;100907.94;;;8.49;100.00
80393;BME280;69719;45.544;10.218;2024-02-21T05:06:16;100901.31;;;8.47;100.00
80393;BME280;69719;45.544;10.218;2024-02-21T05:08:42;100905.28;;;8.57;100.00
80393;BME280;69719;45.544;10.218;2024-02-21T05:11:07;100900.56;;;8.61;100.00
80393;BME280;69719;45.544;10.218;2024-02-21T05:13:33;100896.81;;;8.64;100.00
80393;BME280;69719;45.544;10.218;2024-02-21T05:15:58;100885.44;;;8.65;100.00
80393;BME280;69719;45.544;10.218;2024-02-21T05:18:27;100887.13;;;8.57;100.00
80393;BME280;69719;45.544;10.218;2024-02-21T05:20:53;100885.09;;;8.68;100.00
80393;BME280;69719;45.544;10.218;2024-02-21T05:23:18;100889.66;;;8.66;100.00
80393;BME280;69719;45.544;10.218;2024-02-21T05:25:44;100892.69;;;8.54;100.00
80393;BME280;69719;45.544;10.218;2024-02-21T05:28:09;100900.47;;;8.69;100.00
80393;BME280;69719;45.544;10.218;2024-02-21T05:30:35;100888.50;;;8.68;100.00
80393;BME280;69719;45.544;10.218;2024-02-21T05:33:07;100893.59;;;8.62;100.00
80393;BME280;69719;45.544;10.218;2024-02-21T05:35:34;100891.69;;;8.55;100.00
80393;BME280;69719;45.544;10.218;2024-02-21T05:38:00;100896.09;;;8.32;100.00
80393;BME280;69719;45.544;10.218;2024-02-21T05:40:26;100898.28;;;8.21;100.00
80393;BME280;69719;45.544;10.218;2024-02-21T05:42:51;100905.88;;;8.22;100.00
80393;BME280;69719;45.544;10.218;2024-02-21T05:45:19;100908.66;;;7.98;100.00
80393;BME280;69719;45.544;10.218;2024-02-21T05:47:45;100903.91;;;7.79;100.00
80393;BME280;69719;45.544;10.218;2024-02-21T05:50:10;100904.66;;;7.88;100.00
80393;BME280;69719;45.544;10.218;2024-02-21T05:52:36;100909.50;;;8.13;100.00
80393;BME280;69719;45.544;10.218;2024-02-21T05:55:02;100910.78;;;8.25;100.00
80393;BME280;69719;45.544;10.218;2024-02-21T05:57:27;100910.50;;;8.35;100.00
80393;BME280;69719;45.544;10.218;2024-02-21T05:59:53;100918.47;;;8.33;100.00
80393;BME280;69719;45.544;10.218;2024-02-21T06:02:18;100911.44;;;8.42;100.00
80393;BME280;69719;45.544;10.218;2024-02-21T06:04:44;100906.00;;;8.51;100.00
80393;BME280;69719;45.544;10.218;2024-02-21T06:07:09;100898.38;;;8.50;100.00
80393;BME280;69719;45.544;10.218;2024-02-21T06:09:35;100900.09;;;8.57;100.00
80393;BME280;69719;45.544;10.218;2024-02-21T06:12:00;100900.66;;;8.53;100.00
80393;BME280;69719;45.544;10.218;2024-02-21T06:14:26;100897.25;;;8.52;100.00
80393;BME280;69719;45.544;10.218;2024-02-21T06:16:51;100910.63;;;8.41;100.00
80393;BME280;69719;45.544;10.218;2024-02-21T06:19:17;100915.22;;;8.54;100.00
80393;BME280;69719;45.544;10.218;2024-02-21T06:21:42;100911.91;;;8.60;100.00
80393;BME280;69719;45.544;10.218;2024-02-21T06:24:08;100916.47;;;8.58;100.00
80393;BME280;69719;45.544;10.218;2024-02-21T06:26:33;100916.53;;;8.87;100.00
80393;BME280;69719;45.544;10.218;2024-02-21T06:28:59;100912.06;;;8.96;100.00
80393;BME280;69719;45.544;10.218;2024-02-21T06:31:25;100921.88;;;8.86;100.00
80393;BME280;69719;45.544;10.218;2024-02-21T06:33:50;100918.81;;;8.68;100.00
80393;BME280;69719;45.544;10.218;2024-02-21T06:36:16;100922.31;;;8.75;100.00
80393;BME280;69719;45.544;10.218;2024-02-21T06:38:41;100919.09;;;8.73;100.00
80393;BME280;69719;45.544;10.218;2024-02-21T06:41:15;100922.22;;;8.68;100.00
80393;BME280;69719;45.544;10.218;2024-02-21T06:43:40;100918.03;;;8.82;100.00
80393;BME280;69719;45.544;10.218;2024-02-21T06:46:06;100920.44;;;8.83;100.00
80393;BME280;69719;45.544;10.218;2024-02-21T06:48:31;100921.81;;;8.94;100.00
80393;BME280;69719;45.544;10.218;2024-02-21T06:50:57;100929.13;;;8.76;100.00
80393;BME280;69719;45.544;10.218;2024-02-21T06:53:22;100935.28;;;8.75;100.00
80393;BME280;69719;45.544;10.218;2024-02-21T06:55:48;100937.31;;;8.65;100.00
80393;BME280;69719;45.544;10.218;2024-02-21T06:58:13;100937.31;;;8.65;100.00
80393;BME280;69719;45.544;10.218;2024-02-21T07:00:42;100941.25;;;8.61;100.00
80393;BME280;69719;45.544;10.218;2024-02-21T07:03:08;100936.88;;;8.61;100.00
80393;BME280;69719;45.544;10.218;2024-02-21T07:05:33;100947.28;;;8.90;100.00
80393;BME280;69719;45.544;10.218;2024-02-21T07:07:59;100945.69;;;8.89;100.00
80393;BME280;69719;45.544;10.218;2024-02-21T07:10:24;100955.09;;;8.90;100.00
80393;BME280;69719;45.544;10.218;2024-02-21T07:12:50;100955.59;;;8.86;100.00
80393;BME280;69719;45.544;10.218;2024-02-21T07:15:17;100944.50;;;8.92;100.00
80393;BME280;69719;45.544;10.218;2024-02-21T07:17:42;100955.63;;;9.00;100.00
80393;BME280;69719;45.544;10.218;2024-02-21T07:20:08;100956.72;;;9.06;100.00
80393;BME280;69719;45.544;10.218;2024-02-21T07:22:34;100957.06;;;8.88;100.00
80393;BME280;69719;45.544;10.218;2024-02-21T07:24:59;100960.53;;;8.81;100.00
80393;BME280;69719;45.544;10.218;2024-02-21T07:27:25;100968.53;;;8.94;100.00
80393;BME280;69719;45.544;10.218;2024-02-21T07:29:53;100969.28;;;8.80;100.00
